Terminal Aerodrome Forecast
Issued by NWS Cleveland, OH

Home | Current Version | Previous Version | Graphics & Text | Print | Product List | Glossary On
Versions: 1 2 3 4 5 6 7 8 9 10 11 12 13 14 15 16 17 18
000
FTUS41 KCLE 271700
TAFCAK
TAF
KCAK 271740Z 2718/2818 34012KT P6SM OVC018
     FM272000 34012KT P6SM OVC020
     FM280000 36010KT P6SM OVC035
     FM280800 34005KT 4SM BR BKN018
     FM281400 34008KT P6SM BKN040=

USA.gov is the U.S. government's official web portal to all federal, state and local government web resources and services.